Time;durP1;ratioP1;P1;durP2;ratioP2;P2;SDS_P1;SDS_P2;PMS_P1;PMS_P2;Temp;Humidity;BMP_temperature;BMP_pressure;BME280_temperature;BME280_humidity;BME280_pressure;Samples;Min_cycle;Max_cycle;Signal;HPM_P1;HPM_P2
2021/04/22 00:00:24;;;;;;;1.85;1.45;;;5.40;70.10;;;7.90;58.45;102370.72;5027674;27;97591;-67
2021/04/22 00:02:53;;;;;;;1.60;1.20;;;5.40;70.10;;;7.82;58.86;102371.13;5026408;28;101949;-67
2021/04/22 00:05:28;;;;;;;0.20;0.20;;;5.30;70.00;;;7.75;59.05;102378.47;5026778;27;96763;-67
2021/04/22 00:07:58;;;;;;;0.10;0.10;;;5.30;70.10;;;7.76;58.93;102371.28;5026095;27;97030;-67
2021/04/22 00:10:32;;;;;;;16.27;0.95;;;5.20;70.10;;;7.78;58.90;102375.31;5029570;28;97631;-67
2021/04/22 00:12:59;;;;;;;0.22;0.15;;;5.20;70.30;;;7.84;58.63;102368.19;5029792;27;96854;-67
2021/04/22 00:15:29;;;;;;;0.30;0.30;;;5.20;70.40;;;7.88;58.41;102372.81;5025127;27;97056;-67
2021/04/22 00:17:59;;;;;;;0.20;0.20;;;5.20;70.40;;;7.85;59.25;102370.66;5030912;27;97841;-67
2021/04/22 00:20:27;;;;;;;3.80;1.52;;;5.30;70.40;;;7.82;59.32;102365.78;5029373;27;97947;-67
2021/04/22 00:22:55;;;;;;;0.20;0.20;;;5.30;70.30;;;7.82;58.67;102379.13;5025333;27;97426;-67
2021/04/22 00:25:23;;;;;;;2.00;0.93;;;5.20;70.30;;;7.78;59.23;102380.66;5029716;27;97177;-67
2021/04/22 00:27:53;;;;;;;0.30;0.30;;;5.20;70.20;;;7.71;58.69;102379.22;5009657;28;97910;-67
2021/04/22 00:30:22;;;;;;;0.10;0.10;;;5.20;70.10;;;7.62;58.90;102382.53;5022290;27;98316;-68
2021/04/22 00:32:50;;;;;;;0.30;0.30;;;5.10;70.10;;;7.57;59.28;102380.56;5026683;28;96827;-67
2021/04/22 00:35:19;;;;;;;0.73;0.73;;;5.10;70.10;;;7.54;59.76;102380.25;5026696;28;101278;-67
2021/04/22 00:37:47;;;;;;;0.20;0.20;;;5.10;70.20;;;7.48;59.56;102389.19;5024713;27;96864;-67
2021/04/22 00:40:20;;;;;;;0.10;0.10;;;5.00;70.10;;;7.44;59.49;102390.72;5011495;28;99731;-67
2021/04/22 00:42:49;;;;;;;2.25;0.65;;;5.00;70.20;;;7.37;59.43;102392.75;5031775;27;96841;-67
2021/04/22 00:45:20;;;;;;;0.70;0.70;;;5.00;70.30;;;7.32;59.52;102388.13;5025983;28;99101;-66
2021/04/22 00:47:48;;;;;;;0.20;0.20;;;4.90;70.30;;;7.29;59.55;102395.81;5029385;27;97935;-67
2021/04/22 00:50:23;;;;;;;3.70;2.22;;;4.90;70.30;;;7.23;59.35;102394.09;5025376;27;98105;-67
2021/04/22 00:52:53;;;;;;;0.20;0.20;;;4.80;70.20;;;7.18;60.24;102391.31;5041741;27;96997;-66
2021/04/22 00:55:21;;;;;;;0.65;0.65;;;4.80;70.30;;;7.15;59.01;102389.97;5028154;28;97361;-67
2021/04/22 00:57:50;;;;;;;0.40;0.40;;;4.80;70.30;;;7.15;59.25;102387.31;5026287;28;98852;-67
2021/04/22 01:00:24;;;;;;;2.28;0.55;;;4.70;70.30;;;7.13;59.88;102396.56;5026618;27;96742;-67
2021/04/22 01:02:52;;;;;;;0.20;0.20;;;4.70;70.30;;;7.08;59.45;102391.16;5031259;28;96769;-67
2021/04/22 01:05:24;;;;;;;0.13;0.13;;;4.70;70.30;;;7.07;59.46;102392.19;5030649;27;96932;-67
2021/04/22 01:07:52;;;;;;;0.15;0.15;;;4.60;70.30;;;7.05;59.38;102386.28;5029239;27;96895;-67
2021/04/22 01:10:22;;;;;;;0.68;0.52;;;4.60;70.30;;;7.00;59.32;102388.88;5027389;27;97819;-67
2021/04/22 01:12:50;;;;;;;1.58;1.48;;;4.60;70.30;;;7.00;59.04;102396.88;5026691;27;96919;-67
2021/04/22 01:15:22;;;;;;;0.20;0.20;;;4.60;70.50;;;7.05;58.88;102399.63;5026924;28;98366;-67
2021/04/22 01:17:51;;;;;;;0.15;0.15;;;4.60;70.50;;;7.10;58.80;102397.88;5023525;28;98081;-67
2021/04/22 01:20:23;;;;;;;11.23;1.40;;;4.60;70.60;;;7.14;59.50;102408.84;5023786;27;97668;-67
2021/04/22 01:22:54;;;;;;;1.63;0.57;;;4.60;70.60;;;7.19;59.56;102408.94;5029566;28;96754;-67
2021/04/22 01:25:27;;;;;;;2.10;1.48;;;4.60;70.60;;;7.24;58.75;102401.84;5027495;28;97000;-67
2021/04/22 01:27:55;;;;;;;;;;;4.60;70.70;;;7.30;58.45;102410.75;5028414;28;97853;-67
2021/04/22 01:30:29;;;;;;;0.22;0.22;;;4.60;70.70;;;7.33;58.55;102405.75;5022705;27;98048;-67
2021/04/22 01:32:57;;;;;;;0.40;0.40;;;4.70;70.70;;;7.29;58.77;102412.59;5025743;27;97306;-67
2021/04/22 01:35:31;;;;;;;0.68;0.68;;;4.70;70.50;;;7.28;58.94;102418.97;5024290;28;97466;-67
2021/04/22 01:38:01;;;;;;;;;;;4.70;70.50;;;7.33;58.97;102418.28;5030019;28;97277;-67
2021/04/22 01:40:32;;;;;;;0.25;0.25;;;4.70;70.80;;;7.28;59.09;102426.19;5027974;28;96862;-67
2021/04/22 01:43:00;;;;;;;0.50;0.50;;;4.70;70.40;;;7.28;59.34;102426.19;5027294;28;96812;-67
2021/04/22 01:45:31;;;;;;;0.20;0.20;;;4.70;70.50;;;7.32;58.96;102424.66;5028215;27;97322;-67
2021/04/22 01:47:59;;;;;;;0.15;0.15;;;4.70;70.50;;;7.44;58.46;102420.88;5028130;27;97522;-67
2021/04/22 01:50:33;;;;;;;0.10;0.10;;;4.70;70.50;;;7.48;58.91;102418.53;5024212;28;98192;-67
2021/04/22 01:53:05;;;;;;;1.10;0.85;;;4.80;70.60;;;7.53;59.03;102415.97;5029702;27;97336;-67
2021/04/22 01:55:37;;;;;;;0.57;0.57;;;4.80;70.60;;;7.60;58.40;102425.41;5028306;27;96887;-67
2021/04/22 01:58:09;;;;;;;9.60;2.92;;;4.80;70.60;;;7.66;58.29;102416.47;5028066;28;97892;-67
2021/04/22 02:00:41;;;;;;;0.40;0.40;;;4.90;70.60;;;7.68;58.93;102415.19;5027516;27;97779;-67
2021/04/22 02:03:11;;;;;;;0.25;0.25;;;4.90;70.60;;;7.71;59.19;102420.03;5029343;27;97295;-67
2021/04/22 02:05:40;;;;;;;0.22;0.22;;;5.00;70.60;;;7.76;58.71;102433.44;5029556;27;96699;-67
2021/04/22 02:08:10;;;;;;;10.68;2.72;;;5.00;70.60;;;7.88;58.60;102420.03;5023574;27;97712;-67
2021/04/22 02:10:40;;;;;;;0.70;0.70;;;5.10;70.60;;;7.91;58.17;102420.38;5029349;27;96722;-68
2021/04/22 02:13:13;;;;;;;0.10;0.10;;;5.10;70.60;;;7.95;58.58;102421.50;5031759;28;97227;-67
2021/04/22 02:15:41;;;;;;;;;;;5.10;70.60;;;8.00;58.21;102424.22;5030761;27;96962;-67
2021/04/22 02:18:09;;;;;;;1.45;0.88;;;5.20;70.60;;;8.02;58.29;102427.47;5029343;28;97922;-67
2021/04/22 02:20:37;;;;;;;26.35;1.50;;;5.20;70.60;;;8.00;57.76;102429.56;5029690;28;97677;-67
2021/04/22 02:23:14;;;;;;;0.75;0.75;;;5.20;70.50;;;8.02;58.88;102432.81;5027699;28;97077;-67
2021/04/22 02:25:43;;;;;;;4.20;1.10;;;5.20;70.40;;;7.94;58.22;102425.22;5047561;27;96859;-68
2021/04/22 02:28:11;;;;;;;3.20;1.27;;;5.30;70.30;;;7.83;58.60;102426.13;5029855;28;96857;-67
2021/04/22 02:30:45;;;;;;;0.30;0.30;;;5.20;70.20;;;7.80;58.72;102423.91;5028456;28;96958;-67
2021/04/22 02:33:19;;;;;;;0.38;0.38;;;5.20;70.20;;;7.76;59.04;102428.09;5029614;27;96909;-67
2021/04/22 02:35:50;;;;;;;0.80;0.57;;;5.20;70.30;;;7.75;58.85;102421.16;5030515;28;96753;-67
2021/04/22 02:38:19;;;;;;;0.60;0.60;;;5.20;70.40;;;7.79;58.67;102419.63;5028425;28;97876;-67
2021/04/22 02:40:49;;;;;;;15.70;0.88;;;5.20;70.50;;;7.87;58.43;102419.22;5027869;27;97633;-67
2021/04/22 02:43:20;;;;;;;1.38;1.27;;;5.20;70.60;;;8.00;57.68;102418.91;5031824;28;96899;-67
2021/04/22 02:45:51;;;;;;;2.30;0.50;;;5.20;70.60;;;8.03;58.40;102417.63;5028826;27;97497;-67
2021/04/22 02:48:20;;;;;;;16.77;4.97;;;5.20;70.60;;;8.10;58.06;102427.03;5028298;27;98010;-67
2021/04/22 02:50:51;;;;;;;1.17;0.70;;;5.30;70.70;;;8.11;57.67;102426.03;5031298;27;97727;-68
2021/04/22 02:53:22;;;;;;;0.45;0.45;;;5.30;70.60;;;8.12;58.65;102426.81;5027725;27;96974;-67
2021/04/22 02:56:03;;;;;;;0.40;0.40;;;5.30;70.60;;;8.15;58.55;102426.31;5046267;27;96677;-67
2021/04/22 02:58:32;;;;;;;0.38;0.38;;;5.30;70.50;;;8.16;58.53;102438.63;5028733;27;96832;-67
2021/04/22 03:00:59;;;;;;;0.20;0.20;;;5.40;70.60;;;8.21;58.25;102439.56;5028199;27;97977;-67
2021/04/22 03:03:29;;;;;;;0.10;0.10;;;5.40;70.60;;;8.18;58.06;102429.38;5026783;27;97776;-67
2021/04/22 03:05:58;;;;;;;0.22;0.22;;;5.40;70.50;;;8.22;57.37;102422.47;5025994;27;96766;-68
2021/04/22 03:08:26;;;;;;;1.48;0.75;;;5.40;70.50;;;8.17;57.49;102424.22;5027886;27;98843;-67
2021/04/22 03:10:54;;;;;;;0.28;0.28;;;5.30;70.50;;;8.14;58.05;102422.03;5023661;28;99127;-67
2021/04/22 03:13:23;;;;;;;0.10;0.10;;;5.40;70.50;;;8.14;57.94;102425.53;5015614;28;97976;-67
2021/04/22 03:15:51;;;;;;;5.88;2.05;;;5.40;70.60;;;8.15;58.21;102426.31;5023213;28;96904;-67
2021/04/22 03:18:19;;;;;;;1.90;0.57;;;5.30;70.60;;;8.19;57.67;102419.47;5020384;27;96954;-67
2021/04/22 03:20:47;;;;;;;0.75;0.75;;;5.40;70.70;;;8.18;57.96;102421.34;5021277;28;97843;-67
2021/04/22 03:23:14;;;;;;;0.10;0.10;;;5.30;70.70;;;8.20;58.00;102426.44;5016344;28;97723;-67
2021/04/22 03:25:42;;;;;;;7.13;1.75;;;5.40;70.70;;;8.24;58.47;102420.38;5024597;28;97019;-67
2021/04/22 03:28:11;;;;;;;1.58;1.02;;;5.40;70.70;;;8.22;58.59;102417.13;5021786;27;97483;-67
2021/04/22 03:30:39;;;;;;;0.20;0.20;;;5.40;70.70;;;8.13;58.94;102421.25;5022864;27;96897;-68
2021/04/22 03:33:07;;;;;;;1.83;0.38;;;5.40;70.70;;;8.23;58.63;102429.44;5019555;27;97471;-67
2021/04/22 03:35:35;;;;;;;6.53;0.63;;;5.40;70.70;;;8.28;57.81;102432.16;5016380;28;96825;-67
2021/04/22 03:38:03;;;;;;;2.92;1.13;;;5.50;70.70;;;8.32;58.55;102433.28;5016246;27;97011;-67
2021/04/22 03:40:31;;;;;;;0.73;0.73;;;5.50;70.70;;;8.27;58.42;102438.56;5021364;27;97422;-67
2021/04/22 03:42:59;;;;;;;0.10;0.10;;;5.50;70.70;;;8.36;58.35;102438.97;5015031;28;97583;-67
2021/04/22 03:45:27;;;;;;;1.98;0.52;;;5.50;70.60;;;8.33;58.82;102434.91;5015493;28;98462;-67
2021/04/22 03:47:56;;;;;;;0.30;0.30;;;5.50;70.60;;;8.32;58.61;102435.97;5023487;27;96897;-67
2021/04/22 03:50:24;;;;;;;6.65;1.05;;;5.50;70.60;;;8.29;58.38;102436.47;5016638;28;98045;-67
2021/04/22 03:52:53;;;;;;;0.10;0.10;;;5.60;70.60;;;8.28;58.34;102440.19;5018758;28;100974;-68
2021/04/22 03:55:22;;;;;;;1.15;0.20;;;5.50;70.60;;;8.36;58.81;102438.97;5018544;28;96841;-67
2021/04/22 03:57:50;;;;;;;0.22;0.22;;;5.50;70.70;;;8.42;58.57;102438.81;5021797;28;97160;-67
2021/04/22 04:00:23;;;;;;;0.10;0.10;;;5.60;70.80;;;8.47;57.91;102430.84;5020720;28;98430;-67
2021/04/22 04:02:52;;;;;;;;;;;5.60;70.70;;;8.55;57.91;102438.44;5018625;28;96781;-67
2021/04/22 04:05:21;;;;;;;0.35;0.35;;;5.60;70.70;;;8.60;57.51;102435.81;5020372;28;96822;-67
2021/04/22 04:07:48;;;;;;;2.83;0.60;;;5.60;70.60;;;8.63;57.98;102434.53;5004094;28;97009;-67
2021/04/22 04:10:17;;;;;;;0.17;0.17;;;5.60;70.60;;;8.64;57.49;102434.28;5001532;28;97912;-67
2021/04/22 04:12:44;;;;;;;0.20;0.20;;;5.60;70.70;;;8.65;57.88;102441.22;5004540;28;98032;-67
2021/04/22 04:15:14;;;;;;;1.10;0.80;;;5.70;70.70;;;8.71;57.15;102442.13;5003947;28;97242;-67
2021/04/22 04:17:43;;;;;;;0.32;0.32;;;5.70;70.70;;;8.68;57.50;102438.06;5009399;28;96828;-67
2021/04/22 04:20:14;;;;;;;0.32;0.15;;;5.70;70.70;;;8.70;57.52;102435.94;5010806;28;98191;-67
2021/04/22 04:22:44;;;;;;;0.20;0.20;;;5.70;70.60;;;8.72;57.53;102449.06;4994624;28;98320;-67
2021/04/22 04:25:13;;;;;;;0.10;0.10;;;5.70;70.70;;;8.75;57.82;102443.22;4984526;28;97418;-67
2021/04/22 04:27:41;;;;;;;0.10;0.10;;;5.70;70.70;;;8.75;57.65;102441.38;5009094;28;96961;-67
2021/04/22 04:30:15;;;;;;;0.52;0.52;;;5.70;70.60;;;8.74;57.98;102442.44;5005681;28;97669;-67
2021/04/22 04:32:44;;;;;;;0.30;0.30;;;5.70;70.60;;;8.75;57.52;102441.38;5001219;28;97293;-67
2021/04/22 04:35:14;;;;;;;0.10;0.10;;;5.80;70.70;;;8.78;57.84;102438.22;5021149;28;96843;-67
2021/04/22 04:37:43;;;;;;;10.98;0.82;;;5.70;70.70;;;8.86;57.53;102440.44;5009861;28;97204;-70
2021/04/22 04:40:14;;;;;;;0.30;0.30;;;5.80;70.70;;;8.90;57.51;102441.56;5007876;28;96833;-67
2021/04/22 04:42:44;;;;;;;0.20;0.20;;;5.80;70.70;;;8.90;57.36;102444.22;5004161;28;97630;-68
2021/04/22 04:45:18;;;;;;;0.30;0.30;;;5.80;70.70;;;8.95;57.52;102446.16;5005165;28;97390;-68
2021/04/22 04:47:48;;;;;;;0.10;0.10;;;5.90;70.80;;;8.96;57.58;102453.91;5006931;28;96885;-67
2021/04/22 04:50:17;;;;;;;0.45;0.30;;;5.90;70.70;;;8.99;57.81;102455.31;5008065;28;97961;-67
2021/04/22 04:52:48;;;;;;;0.68;0.68;;;5.90;70.70;;;9.04;57.60;102461.53;5006088;28;98152;-68
2021/04/22 04:55:16;;;;;;;0.40;0.40;;;6.00;70.70;;;9.10;57.55;102455.19;5006932;28;97382;-68
2021/04/22 04:57:44;;;;;;;6.40;1.90;;;6.00;70.70;;;9.15;57.58;102465.94;5004129;28;96905;-67
2021/04/22 05:00:17;;;;;;;0.55;0.55;;;6.00;70.60;;;9.22;57.23;102471.88;5010931;28;97897;-67
2021/04/22 05:02:45;;;;;;;0.22;0.22;;;6.10;70.70;;;9.29;57.31;102473.31;5005558;28;97870;-68
2021/04/22 05:05:15;;;;;;;0.20;0.20;;;6.20;70.60;;;9.35;57.49;102476.88;5008773;28;96796;-67
2021/04/22 05:07:43;;;;;;;0.38;0.38;;;6.20;70.60;;;9.41;57.24;102479.31;5006989;28;96865;-67
2021/04/22 05:10:15;;;;;;;0.20;0.20;;;6.30;70.60;;;9.50;57.38;102485.84;5010054;28;98668;-67
2021/04/22 05:12:43;;;;;;;0.10;0.10;;;6.30;70.50;;;9.56;57.20;102484.03;5007874;28;98334;-67
2021/04/22 05:15:13;;;;;;;8.25;3.35;;;6.30;70.50;;;9.60;57.38;102487.81;5008675;28;97234;-68
2021/04/22 05:17:41;;;;;;;0.10;0.10;;;6.40;70.40;;;9.62;57.08;102485.72;5007819;28;97149;-67
2021/04/22 05:20:11;;;;;;;0.30;0.30;;;6.50;70.50;;;9.69;57.03;102492.47;5006495;28;97561;-67
2021/04/22 05:22:38;;;;;;;1.23;0.75;;;6.50;70.40;;;9.78;57.16;102490.13;5007033;28;97447;-67
2021/04/22 05:25:08;;;;;;;0.10;0.10;;;6.60;70.50;;;9.91;57.05;102495.09;5002324;28;97338;-67
2021/04/22 05:27:38;;;;;;;0.30;0.30;;;6.60;70.40;;;10.02;56.54;102494.94;5002872;28;97021;-67
2021/04/22 05:30:08;;;;;;;0.25;0.25;;;6.70;70.30;;;10.07;56.71;102496.84;5005799;28;98440;-68
2021/04/22 05:32:35;;;;;;;0.35;0.35;;;6.80;70.30;;;10.14;56.66;102495.59;5002832;28;98099;-67
2021/04/22 05:35:05;;;;;;;0.10;0.10;;;6.80;70.20;;;10.27;56.44;102505.06;5008599;28;101106;-67
2021/04/22 05:37:52;;;;;;;2.50;1.15;;;7.00;70.20;;;10.37;56.58;102505.13;5008850;28;96952;-67
2021/04/22 05:40:21;;;;;;;0.15;0.15;;;7.10;70.20;;;10.46;56.38;102507.09;5009395;28;96975;-67
2021/04/22 05:42:50;;;;;;;3.05;0.88;;;7.10;70.00;;;10.46;56.55;102512.44;5003375;28;97897;-67
2021/04/22 05:45:18;;;;;;;0.25;0.25;;;7.20;70.00;;;10.46;56.67;102500.91;5008064;28;96864;-67
2021/04/22 05:47:48;;;;;;;0.10;0.10;;;7.20;70.00;;;10.58;56.56;102501.53;5003212;28;97003;-67
2021/04/22 05:50:18;;;;;;;0.20;0.20;;;7.30;70.00;;;10.68;56.31;102509.63;5002558;28;98071;-67
2021/04/22 05:52:47;;;;;;;2.22;0.47;;;7.40;69.90;;;10.78;56.66;102504.31;5005564;28;97055;-67
2021/04/22 05:55:17;;;;;;;0.85;0.85;;;7.50;69.80;;;10.80;56.29;102504.88;5018096;28;98824;-67
2021/04/22 05:57:47;;;;;;;6.47;0.65;;;7.50;69.80;;;10.82;56.45;102505.44;5004689;27;96923;-68
2021/04/22 06:00:20;;;;;;;0.32;0.32;;;7.60;69.80;;;10.80;56.51;102508.38;5003166;28;98203;-67
2021/04/22 06:02:47;;;;;;;4.28;1.13;;;7.60;69.80;;;10.88;56.57;102517.81;5006364;28;97520;-67
2021/04/22 06:05:16;;;;;;;0.20;0.20;;;7.70;69.90;;;10.86;56.15;102511.88;5005357;28;96922;-67
2021/04/22 06:07:47;;;;;;;0.10;0.10;;;7.70;69.90;;;10.95;56.70;102516.47;5007047;28;97491;-67
2021/04/22 06:10:17;;;;;;;0.17;0.17;;;7.70;69.90;;;11.06;56.35;102518.94;4985416;28;97857;-67
2021/04/22 06:12:45;;;;;;;0.10;0.10;;;7.80;70.50;;;11.15;56.48;102516.59;5008287;28;98511;-68
2021/04/22 06:15:16;;;;;;;0.20;0.20;;;7.90;69.90;;;11.40;56.10;102524.72;5006000;28;97132;-69
2021/04/22 06:17:43;;;;;;;3.85;0.80;;;8.00;69.80;;;11.61;55.52;102532.59;5006201;28;97281;-67
2021/04/22 06:20:17;;;;;;;0.10;0.10;;;8.20;69.60;;;11.86;55.29;102529.97;5003380;28;97787;-68
2021/04/22 06:22:44;;;;;;;;;;;8.30;69.50;;;11.99;55.35;102529.44;4990415;28;98051;-67
2021/04/22 06:25:14;;;;;;;0.30;0.30;;;8.50;69.30;;;12.04;55.35;102537.53;5005370;28;97155;-67
2021/04/22 06:27:42;;;;;;;0.90;0.90;;;8.60;69.10;;;12.32;54.93;102544.25;4999217;28;97457;-67
2021/04/22 06:30:15;;;;;;;1.45;1.23;;;8.80;69.10;;;12.70;54.38;102536.44;4995521;28;100887;-68
2021/04/22 06:32:43;;;;;;;0.10;0.10;;;9.00;68.90;;;12.83;54.03;102550.13;5004660;28;98516;-67
2021/04/22 06:35:13;;;;;;;0.10;0.10;;;9.20;68.70;;;12.93;54.81;102543.94;5000698;28;97444;-67
2021/04/22 06:37:42;;;;;;;0.20;0.20;;;9.30;68.60;;;13.14;54.42;102550.88;5005147;28;97503;-68
2021/04/22 06:40:15;;;;;;;0.65;0.47;;;9.60;68.50;;;14.00;52.99;102560.94;5003412;28;97269;-68
2021/04/22 06:42:53;;;;;;;0.70;0.52;;;9.90;68.10;;;13.70;53.97;102563.00;5005253;28;96990;-69
2021/04/22 06:45:23;;;;;;;5.07;1.95;;;10.10;68.10;;;13.64;54.61;102556.81;5007324;28;96989;-68
2021/04/22 06:47:51;;;;;;;0.65;0.65;;;10.10;68.10;;;13.76;54.07;102553.81;4989911;28;97358;-69
2021/04/22 06:50:24;;;;;;;0.15;0.15;;;10.20;68.10;;;14.02;53.76;102559.56;5004173;28;98341;-68
2021/04/22 06:52:52;;;;;;;0.17;0.17;;;10.40;68.10;;;14.82;52.42;102560.81;5004905;28;97820;-68
2021/04/22 06:55:26;;;;;;;1.65;0.85;;;10.70;67.50;;;14.98;52.48;102560.34;5003322;28;96833;-68
2021/04/22 06:58:03;;;;;;;0.10;0.10;;;11.00;67.30;;;15.27;52.46;102558.41;5003880;28;97262;-69
2021/04/22 07:00:35;;;;;;;0.10;0.10;;;11.30;67.20;;;15.45;52.06;102570.38;5005568;28;98472;-68
2021/04/22 07:03:05;;;;;;;0.98;0.98;;;11.50;67.10;;;15.36;52.64;102566.72;5002515;28;96792;-68
2021/04/22 07:05:33;;;;;;;0.45;0.45;;;11.60;66.90;;;15.11;53.52;102567.78;5016455;28;98213;-68
2021/04/22 07:08:04;;;;;;;0.10;0.10;;;11.60;67.10;;;14.82;54.34;102572.41;5005991;28;97425;-68
2021/04/22 07:10:32;;;;;;;1.13;1.10;;;11.50;67.20;;;14.59;54.75;102573.16;5004593;28;97900;-65
2021/04/22 07:13:05;;;;;;;;;;;11.40;67.20;;;14.60;54.57;102579.38;5005440;28;97725;-66
2021/04/22 07:15:34;;;;;;;2.85;0.65;;;11.40;67.20;;;14.75;54.41;102580.03;5001850;28;97277;-66
2021/04/22 07:18:03;;;;;;;0.57;0.43;;;11.30;67.60;;;14.84;54.27;102575.63;5003294;28;97354;-67
2021/04/22 07:20:31;;;;;;;0.60;0.60;;;11.30;67.80;;;15.11;53.79;102581.28;4999609;28;98169;-66
2021/04/22 07:23:01;;;;;;;1.02;0.38;;;11.40;67.70;;;15.62;53.02;102587.72;5008046;28;97143;-66
2021/04/22 07:25:34;;;;;;;0.60;0.60;;;11.60;67.50;;;15.87;52.10;102584.66;5003500;28;96919;-67
2021/04/22 07:28:08;;;;;;;2.60;0.98;;;11.80;67.20;;;16.18;52.48;102580.41;5004610;28;97210;-67
2021/04/22 07:30:38;;;;;;;0.20;0.20;;;12.00;66.90;;;16.40;52.14;102588.75;5007413;28;98099;-67
2021/04/22 07:33:07;;;;;;;0.20;0.20;;;12.20;66.80;;;16.24;51.69;102590.88;5000605;28;99483;-67
2021/04/22 07:35:36;;;;;;;0.10;0.10;;;12.30;66.70;;;16.24;52.88;102588.16;5001285;28;98479;-67
2021/04/22 07:38:08;;;;;;;0.10;0.10;;;12.30;66.60;;;16.18;53.18;102594.75;5005295;28;97067;-67
2021/04/22 07:40:36;;;;;;;0.45;0.45;;;12.40;66.90;;;16.30;53.04;102592.38;5001209;28;98477;-67
2021/04/22 07:43:03;;;;;;;0.47;0.47;;;12.40;67.00;;;16.68;52.38;102602.09;5009722;28;97837;-68
2021/04/22 07:45:37;;;;;;;0.25;0.25;;;12.50;66.80;;;16.77;52.49;102599.47;4995068;28;97150;-66
2021/04/22 07:48:08;;;;;;;4.20;0.57;;;12.60;66.70;;;16.92;51.84;102601.94;5006424;28;96973;-66
2021/04/22 07:50:37;;;;;;;0.55;0.55;;;12.80;66.80;;;23.29;39.65;102597.31;5004585;28;97948;-66
2021/04/22 07:53:07;;;;;;;0.30;0.30;;;13.60;66.50;;;23.46;40.76;102596.28;4985639;28;98186;-68
2021/04/22 07:55:40;;;;;;;4.38;0.80;;;14.60;65.60;;;21.99;44.65;102593.81;5003768;28;101903;-68
2021/04/22 07:58:08;;;;;;;0.08;0.08;;;15.50;65.30;;;20.98;47.54;102595.16;5003141;28;96971;-67
2021/04/22 08:00:38;;;;;;;3.00;0.55;;;15.60;65.50;;;24.39;40.75;102612.03;5000838;28;97891;-68
2021/04/22 08:03:06;;;;;;;1.13;0.75;;;15.90;65.60;;;22.06;45.71;102599.53;5007879;28;97645;-68
2021/04/22 08:05:37;;;;;;;6.07;0.80;;;16.30;65.30;;;20.68;49.65;102609.81;5003363;28;97446;-68
2021/04/22 08:08:09;;;;;;;1.60;0.68;;;16.20;65.40;;;19.70;51.81;102604.50;5007235;28;96944;-67
2021/04/22 08:10:42;;;;;;;0.20;0.20;;;16.00;65.80;;;19.12;52.88;102606.69;5009339;28;98267;-67
2021/04/22 08:13:13;;;;;;;0.20;0.20;;;15.70;66.10;;;18.81;52.85;102607.81;5002466;28;96902;-67
2021/04/22 08:15:46;;;;;;;1.45;0.35;;;15.40;66.30;;;18.83;53.07;102605.59;5008961;28;97622;-67
2021/04/22 08:18:15;;;;;;;1.05;0.75;;;15.20;66.50;;;19.42;51.39;102600.41;5004733;28;96798;-67
2021/04/22 08:20:44;;;;;;;0.60;0.60;;;15.20;66.60;;;18.94;52.78;102602.28;5004190;28;96923;-67
2021/04/22 08:23:13;;;;;;;0.10;0.10;;;15.10;66.50;;;19.62;51.37;102599.84;5005238;28;96818;-66
2021/04/22 08:25:47;;;;;;;0.25;0.25;;;15.10;66.60;;;19.72;50.83;102597.63;5001765;28;97283;-67
2021/04/22 08:28:19;;;;;;;0.20;0.20;;;15.10;66.40;;;23.06;43.74;102598.03;5005170;28;96837;-67
2021/04/22 08:30:53;;;;;;;26.70;0.90;;;15.50;66.30;;;26.56;38.00;102595.28;5002848;28;97008;-70
2021/04/22 08:33:25;;;;;;;4.05;1.23;;;16.40;66.40;;;23.37;45.27;102603.78;5003967;28;97714;-69
2021/04/22 08:35:53;;;;;;;2.65;0.88;;;17.00;65.90;;;21.36;50.42;102607.66;4991841;28;103575;-68
2021/04/22 08:38:22;;;;;;;8.95;0.60;;;17.00;65.80;;;19.77;53.30;102604.81;5006533;28;98057;-68
2021/04/22 08:40:52;;;;;;;0.10;0.10;;;16.50;66.00;;;18.89;54.67;102601.63;5009236;28;97511;-69
2021/04/22 08:43:22;;;;;;;12.45;0.55;;;16.00;66.40;;;18.47;55.20;102610.31;5004737;28;97708;-68
2021/04/22 08:45:52;;;;;;;0.55;0.15;;;15.60;66.70;;;18.81;54.39;102615.97;5010167;28;97288;-67
2021/04/22 08:48:21;;;;;;;0.22;0.22;;;15.40;67.10;;;21.27;48.25;102612.34;5006157;28;97572;-67
2021/04/22 08:50:51;;;;;;;0.15;0.10;;;15.60;67.40;;;20.74;50.52;102609.31;5007113;28;97917;-66
2021/04/22 08:53:24;;;;;;;0.45;0.35;;;15.90;67.00;;;20.12;51.90;102610.00;5008761;28;98324;-68
2021/04/22 08:55:52;;;;;;;;;;;16.00;66.70;;;19.53;52.95;102615.34;5005809;28;96792;-67
2021/04/22 08:58:20;;;;;;;2.85;0.65;;;15.90;66.20;;;19.02;54.13;102625.97;5006205;28;97216;-67
2021/04/22 09:00:55;;;;;;;3.17;0.73;;;15.70;66.50;;;18.52;54.84;102627.25;5008200;28;97553;-67
2021/04/22 09:03:24;;;;;;;0.40;0.40;;;15.50;66.60;;;18.18;55.06;102621.53;5003779;28;96788;-68
2021/04/22 09:05:52;;;;;;;4.15;0.47;;;15.30;66.70;;;18.10;55.69;102630.41;5005319;28;97245;-68
2021/04/22 09:08:33;;;;;;;2.05;0.60;;;15.10;67.00;;;17.87;55.26;102631.47;5002078;28;96926;-67
2021/04/22 09:11:03;;;;;;;0.10;0.10;;;14.90;67.20;;;17.69;56.08;102628.88;4986964;28;97335;-67
2021/04/22 09:13:33;;;;;;;0.95;0.63;;;14.70;67.30;;;17.91;55.50;102632.47;4990163;28;97268;-68
2021/04/22 09:16:08;;;;;;;0.55;0.30;;;14.70;67.20;;;18.41;54.16;102631.34;4972177;28;97545;-68
2021/04/22 09:18:42;;;;;;;1.85;0.60;;;14.70;67.10;;;18.84;52.93;102631.63;5004430;28;97827;-68
2021/04/22 09:21:20;;;;;;;4.00;0.68;;;14.90;66.90;;;18.69;53.38;102624.66;5000749;28;97969;-68
2021/04/22 09:24:03;;;;;;;0.05;0.05;;;14.90;67.40;;;18.61;53.51;102630.81;4989927;28;97094;-68
2021/04/22 09:26:40;;;;;;;1.35;0.20;;;15.00;66.60;;;18.80;52.97;102627.94;5005176;28;97190;-68
2021/04/22 09:29:10;;;;;;;1.13;0.20;;;15.00;66.70;;;19.00;53.01;102618.13;5006101;28;96968;-68
2021/04/22 09:31:41;;;;;;;3.05;1.42;;;15.10;66.70;;;19.63;50.95;102625.91;4991983;28;98748;-68
2021/04/22 09:34:16;;;;;;;1.17;0.63;;;15.30;66.50;;;19.67;51.41;102622.25;5003290;28;97686;-67
2021/04/22 09:36:49;;;;;;;3.22;1.23;;;15.50;66.40;;;19.50;51.82;102632.25;5005136;28;96851;-67
2021/04/22 09:39:25;;;;;;;8.70;3.40;;;15.60;66.30;;;19.37;52.32;102633.19;4999399;28;96936;-67
2021/04/22 09:41:58;;;;;;;0.35;0.05;;;15.60;66.00;;;21.95;47.44;102622.91;5001591;28;97863;-68
2021/04/22 09:44:28;;;;;;;0.20;0.20;;;15.70;66.60;;;23.32;45.52;102632.19;5002587;28;97712;-68
2021/04/22 09:47:09;;;;;;;3.00;0.52;;;16.30;67.70;;;22.17;49.18;102622.56;5005007;28;97137;-67
2021/04/22 09:49:53;;;;;;;0.10;0.10;;;16.90;67.00;;;21.65;50.66;102628.72;5011137;28;97005;-67
2021/04/22 09:52:21;;;;;;;0.00;0.00;;;17.30;66.10;;;21.10;51.71;102628.78;5004973;28;96851;-67
2021/04/22 09:54:53;;;;;;;18.05;1.52;;;17.30;65.80;;;20.45;52.56;102632.13;5002857;28;97444;-67
2021/04/22 09:57:25;;;;;;;1.57;0.40;;;17.10;65.80;;;20.30;52.93;102627.97;5006614;28;96976;-68
2021/04/22 09:59:55;;;;;;;0.98;0.70;;;17.00;66.00;;;20.53;52.81;102634.03;5000353;28;99710;-67
2021/04/22 10:02:25;;;;;;;3.53;0.65;;;16.90;65.70;;;20.31;53.46;102637.72;5005161;28;97832;-67
2021/04/22 10:04:56;;;;;;;4.07;0.75;;;16.80;66.00;;;20.54;52.72;102630.19;5003634;28;96918;-66
2021/04/22 10:07:28;;;;;;;0.70;0.28;;;16.80;66.40;;;20.95;51.72;102634.75;5004584;28;96957;-68
2021/04/22 10:09:59;;;;;;;1.08;0.63;;;17.00;66.70;;;21.05;52.52;102645.31;5006614;28;97063;-68
2021/04/22 10:12:34;;;;;;;5.75;0.85;;;17.20;66.30;;;20.86;53.45;102635.91;4990952;28;96934;-67
2021/04/22 10:15:12;;;;;;;1.15;0.75;;;17.20;65.90;;;20.69;52.67;102633.19;5008903;28;96766;-67
2021/04/22 10:17:41;;;;;;;2.30;1.55;;;17.20;65.60;;;20.58;52.62;102627.28;5006562;28;96898;-67
2021/04/22 10:20:13;;;;;;;5.63;0.60;;;17.10;65.70;;;20.24;53.25;102628.44;4998459;28;96901;-67
2021/04/22 10:22:47;;;;;;;2.20;0.52;;;17.00;65.60;;;20.12;52.86;102628.28;5005080;28;98091;-66
2021/04/22 10:25:19;;;;;;;0.17;0.17;;;16.80;65.50;;;20.42;52.77;102628.09;5008954;28;97656;-68
2021/04/22 10:27:48;;;;;;;4.47;0.68;;;16.80;65.70;;;20.31;53.14;102634.19;5002149;28;98354;-67
2021/04/22 10:30:20;;;;;;;2.50;0.50;;;16.80;65.80;;;20.37;53.20;102628.28;5004408;28;104109;-66
2021/04/22 10:32:49;;;;;;;0.20;0.20;;;16.80;65.80;;;20.47;52.50;102635.31;5000247;28;98749;-66